Time;durP1;ratioP1;P1;durP2;ratioP2;P2;SDS_P1;SDS_P2;PMS_P1;PMS_P2;Temp;Humidity;BMP_temperature;BMP_pressure;BME280_temperature;BME280_humidity;BME280_pressure;Samples;Min_cycle;Max_cycle;Signal;HPM_P1;HPM_P2
2022/12/12 00:01:27;;;;;;;39.97;15.60;;;;;;;;;;5032377;28;20083;-80
2022/12/12 00:03:52;;;;;;;41.77;15.60;;;;;;;;;;5047443;28;20062;-81
2022/12/12 00:06:18;;;;;;;43.73;16.03;;;;;;;;;;5030700;28;20025;-80
2022/12/12 00:08:43;;;;;;;44.50;16.50;;;;;;;;;;5029920;28;20033;-81
2022/12/12 00:11:08;;;;;;;44.37;15.67;;;;;;;;;;5031631;28;20410;-80
2022/12/12 00:13:34;;;;;;;39.83;14.60;;;;;;;;;;5029369;28;20107;-80
2022/12/12 00:16:00;;;;;;;36.43;13.87;;;;;;;;;;5030721;28;20077;-81
2022/12/12 00:18:25;;;;;;;33.17;13.10;;;;;;;;;;5032150;28;20036;-80
2022/12/12 00:20:55;;;;;;;37.40;13.60;;;;;;;;;;5030721;28;20013;-80
2022/12/12 00:23:21;;;;;;;38.80;14.77;;;;;;;;;;5032139;28;20037;-81
2022/12/12 00:26:06;;;;;;;35.87;13.67;;;;;;;;;;5030509;28;20091;-81
2022/12/12 00:28:31;;;;;;;42.20;13.50;;;;;;;;;;5031279;28;20129;-81
2022/12/12 00:30:57;;;;;;;37.40;13.23;;;;;;;;;;5031896;28;20398;-80
2022/12/12 00:33:22;;;;;;;36.57;13.73;;;;;;;;;;5032351;28;20393;-80
2022/12/12 00:35:52;;;;;;;37.93;12.63;;;;;;;;;;5030536;28;20362;-81
2022/12/12 00:38:18;;;;;;;35.53;13.13;;;;;;;;;;5030528;28;20019;-80
2022/12/12 00:40:43;;;;;;;34.27;13.17;;;;;;;;;;5031605;28;20063;-81
2022/12/12 00:43:08;;;;;;;35.17;12.67;;;;;;;;;;5032225;28;20017;-80
2022/12/12 00:45:35;;;;;;;41.17;13.10;;;;;;;;;;5022088;28;20025;-81
2022/12/12 00:48:00;;;;;;;39.00;13.33;;;;;;;;;;5034301;28;20124;-80
2022/12/12 00:50:26;;;;;;;34.63;12.57;;;;;;;;;;5034457;28;20025;-81
2022/12/12 00:52:51;;;;;;;30.30;12.47;;;;;;;;;;5034404;28;20025;-81
2022/12/12 00:55:16;;;;;;;37.77;12.73;;;;;;;;;;5034309;28;20015;-81
2022/12/12 00:57:41;;;;;;;36.03;12.67;;;;;;;;;;5034371;28;20120;-81
2022/12/12 01:00:07;;;;;;;41.93;13.70;;;;;;;;;;5034561;28;20377;-81
2022/12/12 01:02:33;;;;;;;36.70;12.77;;;;;;;;;;5034234;28;20021;-81
2022/12/12 01:04:58;;;;;;;32.37;12.67;;;;;;;;;;5033076;28;20385;-81
2022/12/12 01:07:23;;;;;;;34.13;13.43;;;;;;;;;;5033109;28;20442;-80
2022/12/12 01:09:48;;;;;;;37.17;13.47;;;;;;;;;;5032897;28;20026;-81
2022/12/12 01:12:13;;;;;;;37.90;12.97;;;;;;;;;;5033902;28;20075;-81
2022/12/12 01:14:39;;;;;;;36.00;12.53;;;;;;;;;;5050667;28;20017;-81
2022/12/12 01:17:04;;;;;;;36.93;12.77;;;;;;;;;;5035008;28;20029;-81
2022/12/12 01:19:29;;;;;;;33.93;13.07;;;;;;;;;;5033090;28;20381;-81
2022/12/12 01:21:54;;;;;;;36.77;12.83;;;;;;;;;;5033899;28;20418;-81
2022/12/12 01:24:20;;;;;;;40.87;13.83;;;;;;;;;;5033728;28;20068;-81
2022/12/12 01:26:45;;;;;;;35.50;13.20;;;;;;;;;;5035104;28;20066;-81
2022/12/12 01:29:10;;;;;;;33.60;11.63;;;;;;;;;;5033762;28;20044;-81
2022/12/12 01:31:35;;;;;;;36.97;12.30;;;;;;;;;;5033737;28;20041;-81
2022/12/12 01:34:00;;;;;;;39.27;12.80;;;;;;;;;;5034927;28;20104;-81
2022/12/12 01:36:25;;;;;;;31.23;12.13;;;;;;;;;;5033618;28;20445;-81
2022/12/12 01:38:53;;;;;;;28.70;11.70;;;;;;;;;;5031463;28;20041;-81
2022/12/12 01:41:19;;;;;;;34.93;10.87;;;;;;;;;;5032109;28;20071;-81
2022/12/12 01:43:45;;;;;;;36.77;12.47;;;;;;;;;;5026206;28;20033;-81
2022/12/12 01:46:29;;;;;;;34.43;12.00;;;;;;;;;;5026767;28;20029;-81
2022/12/12 01:48:57;;;;;;;37.90;12.63;;;;;;;;;;5049928;28;20068;-81
2022/12/12 01:51:24;;;;;;;30.03;12.00;;;;;;;;;;5032674;28;20028;-81
2022/12/12 01:53:52;;;;;;;38.03;12.77;;;;;;;;;;5033284;28;20043;-81
2022/12/12 01:56:18;;;;;;;34.17;12.43;;;;;;;;;;5032539;28;20022;-81
2022/12/12 01:58:44;;;;;;;30.97;11.83;;;;;;;;;;5033283;28;20481;-81
2022/12/12 02:01:09;;;;;;;30.43;11.77;;;;;;;;;;5033123;28;20112;-81
2022/12/12 02:03:35;;;;;;;33.27;12.27;;;;;;;;;;5032975;28;20052;-81
2022/12/12 02:06:02;;;;;;;36.47;12.80;;;;;;;;;;5033065;28;20446;-81
2022/12/12 02:08:28;;;;;;;29.43;11.73;;;;;;;;;;5030176;28;20108;-81
2022/12/12 02:10:53;;;;;;;36.43;12.13;;;;;;;;;;5032917;28;20044;-81
2022/12/12 02:13:21;;;;;;;30.63;11.63;;;;;;;;;;5049607;28;20048;-81
2022/12/12 02:16:01;;;;;;;33.87;12.80;;;;;;;;;;5032520;28;20029;-81
2022/12/12 02:18:29;;;;;;;33.50;12.40;;;;;;;;;;5049563;28;20075;-81
2022/12/12 02:21:03;;;;;;;36.33;12.90;;;;;;;;;;5049290;28;20104;-81
2022/12/12 02:23:43;;;;;;;31.57;10.57;;;;;;;;;;5032852;28;20064;-81
2022/12/12 02:26:27;;;;;;;34.57;11.47;;;;;;;;;;5020613;28;20068;-81
2022/12/12 02:28:58;;;;;;;35.90;11.80;;;;;;;;;;5049142;28;20014;-81
2022/12/12 02:31:33;;;;;;;33.30;12.50;;;;;;;;;;5049250;28;20018;-82
2022/12/12 02:34:24;;;;;;;33.37;11.20;;;;;;;;;;5031521;28;20060;-81
2022/12/12 02:36:49;;;;;;;32.10;11.13;;;;;;;;;;5034428;28;20045;-81
2022/12/12 02:39:50;;;;;;;36.07;11.23;;;;;;;;;;5033730;28;20331;-81
2022/12/12 02:42:15;;;;;;;31.87;10.97;;;;;;;;;;5030865;28;20419;-81
2022/12/12 02:44:41;;;;;;;30.13;10.77;;;;;;;;;;5016499;28;20033;-81
2022/12/12 02:47:18;;;;;;;28.03;11.00;;;;;;;;;;5048746;28;20044;-81
2022/12/12 02:49:43;;;;;;;31.60;11.40;;;;;;;;;;5030958;28;20029;-81
2022/12/12 02:52:09;;;;;;;30.20;11.77;;;;;;;;;;5048832;28;20070;-82
2022/12/12 02:54:34;;;;;;;28.00;10.73;;;;;;;;;;5032145;28;20456;-82
2022/12/12 02:57:00;;;;;;;33.33;12.23;;;;;;;;;;5031942;28;20530;-81
2022/12/12 02:59:32;;;;;;;28.70;11.40;;;;;;;;;;5032046;28;20022;-81
2022/12/12 03:01:57;;;;;;;34.30;12.82;;;;;;;;;;5031937;28;20484;-81
2022/12/12 03:10:12;;;;;;;31.23;10.60;;;;;;;;;;5028233;28;20021;-81
2022/12/12 03:12:40;;;;;;;33.90;11.90;;;;;;;;;;5031746;28;20021;-81
2022/12/12 03:15:11;;;;;;;37.67;12.73;;;;;;;;;;5048199;28;20021;-81
2022/12/12 03:17:47;;;;;;;34.10;11.70;;;;;;;;;;5033056;28;20034;-81
2022/12/12 03:20:24;;;;;;;39.97;11.80;;;;;;;;;;5031648;28;20094;-81
2022/12/12 03:22:49;;;;;;;37.57;11.93;;;;;;;;;;5032978;28;20075;-81
2022/12/12 03:25:18;;;;;;;25.90;10.40;;;;;;;;;;5042273;28;20017;-82
2022/12/12 03:27:47;;;;;;;33.30;11.23;;;;;;;;;;5032099;28;20354;-81
2022/12/12 03:30:14;;;;;;;30.80;11.57;;;;;;;;;;5032885;28;20373;-81
2022/12/12 03:32:43;;;;;;;32.47;10.53;;;;;;;;;;5031358;28;20025;-81
2022/12/12 03:35:18;;;;;;;30.07;11.47;;;;;;;;;;5022958;28;20013;-81
2022/12/12 03:37:46;;;;;;;33.23;11.53;;;;;;;;;;5031240;28;20017;-82
2022/12/12 03:40:17;;;;;;;36.83;11.53;;;;;;;;;;5018703;28;20029;-81
2022/12/12 03:42:46;;;;;;;31.23;10.77;;;;;;;;;;5028774;28;20029;-81
2022/12/12 03:45:20;;;;;;;34.53;11.20;;;;;;;;;;5031566;28;20080;-81
2022/12/12 03:47:49;;;;;;;28.37;11.33;;;;;;;;;;5030968;28;20470;-81
2022/12/12 03:50:21;;;;;;;30.03;10.50;;;;;;;;;;5047861;28;20088;-81
2022/12/12 03:53:07;;;;;;;29.77;11.17;;;;;;;;;;5017080;28;20010;-82
2022/12/12 03:55:37;;;;;;;34.13;10.73;;;;;;;;;;5032385;28;20361;-82
2022/12/12 03:58:22;;;;;;;36.40;11.20;;;;;;;;;;5031247;28;20028;-81
2022/12/12 04:00:49;;;;;;;33.37;11.73;;;;;;;;;;5029944;28;20029;-81
2022/12/12 04:03:25;;;;;;;28.43;11.13;;;;;;;;;;5030938;28;20469;-81
2022/12/12 04:12:57;;;;;;;29.77;10.73;;;;;;;;;;5024940;28;20499;-81
2022/12/12 04:14:20;;;;;;;33.13;11.50;;;;;;;;;;5032441;28;20029;-82
2022/12/12 04:16:47;;;;;;;32.87;11.23;;;;;;;;;;5032043;28;20044;-81
2022/12/12 04:23:13;;;;;;;32.90;11.00;;;;;;;;;;5030985;28;20040;-81
2022/12/12 04:24:45;;;;;;;31.67;11.50;;;;;;;;;;5032444;28;20028;-82
2022/12/12 04:27:10;;;;;;;30.17;11.07;;;;;;;;;;5047242;28;20013;-82
2022/12/12 04:29:35;;;;;;;29.80;11.03;;;;;;;;;;5046739;28;20053;-82
2022/12/12 04:32:13;;;;;;;28.50;10.77;;;;;;;;;;5047202;28;20896;-81
2022/12/12 04:34:38;;;;;;;31.47;10.80;;;;;;;;;;5030725;28;20048;-81
2022/12/12 04:37:04;;;;;;;34.30;11.43;;;;;;;;;;5031703;28;20021;-81
2022/12/12 04:39:30;;;;;;;32.63;10.57;;;;;;;;;;5031762;28;20033;-82
2022/12/12 04:41:56;;;;;;;35.73;11.80;;;;;;;;;;5030352;28;20028;-81
2022/12/12 04:44:22;;;;;;;38.97;12.97;;;;;;;;;;5030546;28;20501;-81
2022/12/12 04:46:49;;;;;;;32.70;11.67;;;;;;;;;;5030458;28;20084;-81
2022/12/12 04:49:18;;;;;;;31.27;12.83;;;;;;;;;;5030437;28;20048;-81
2022/12/12 04:51:45;;;;;;;31.07;12.37;;;;;;;;;;5030485;28;20025;-81
2022/12/12 04:54:15;;;;;;;36.20;12.37;;;;;;;;;;5030430;28;20159;-81
2022/12/12 04:56:43;;;;;;;35.20;11.87;;;;;;;;;;5031144;28;20036;-82
2022/12/12 04:59:08;;;;;;;32.27;12.03;;;;;;;;;;5030427;28;20063;-82
2022/12/12 05:01:39;;;;;;;34.47;11.87;;;;;;;;;;5030576;28;20117;-82
2022/12/12 05:04:08;;;;;;;28.70;11.70;;;;;;;;;;5030470;28;20029;-81
2022/12/12 05:06:43;;;;;;;30.37;12.57;;;;;;;;;;5030248;28;20037;-81
2022/12/12 05:09:10;;;;;;;31.47;11.47;;;;;;;;;;5030422;28;20018;-81
2022/12/12 05:11:36;;;;;;;32.67;11.70;;;;;;;;;;5030299;28;20091;-81
2022/12/12 05:14:01;;;;;;;35.93;12.60;;;;;;;;;;5029629;28;20392;-81
2022/12/12 05:16:29;;;;;;;35.80;11.73;;;;;;;;;;5030057;28;20518;-81
2022/12/12 05:18:54;;;;;;;37.43;12.00;;;;;;;;;;5031617;28;20510;-81
2022/12/12 05:21:20;;;;;;;34.83;11.90;;;;;;;;;;5031510;28;20041;-81
2022/12/12 05:23:45;;;;;;;36.10;11.50;;;;;;;;;;5030114;28;20052;-82
2022/12/12 05:26:19;;;;;;;34.10;11.17;;;;;;;;;;5030268;28;20029;-82
2022/12/12 05:28:45;;;;;;;34.33;11.77;;;;;;;;;;5050442;28;20108;-81
2022/12/12 05:31:10;;;;;;;41.73;12.67;;;;;;;;;;5035496;28;20445;-82
2022/12/12 05:33:35;;;;;;;34.47;12.47;;;;;;;;;;5032365;28;20419;-81
2022/12/12 05:36:00;;;;;;;34.07;11.80;;;;;;;;;;5033694;28;20334;-82
2022/12/12 05:38:25;;;;;;;38.07;11.43;;;;;;;;;;5034814;28;20032;-82
2022/12/12 05:40:51;;;;;;;34.13;11.73;;;;;;;;;;5033731;28;20206;-81
2022/12/12 05:43:16;;;;;;;30.23;10.00;;;;;;;;;;5022223;28;20026;-81
2022/12/12 05:45:41;;;;;;;34.67;12.20;;;;;;;;;;5032070;28;20164;-81
2022/12/12 05:48:06;;;;;;;38.00;12.13;;;;;;;;;;5032678;28;20112;-81
2022/12/12 05:50:32;;;;;;;37.63;12.80;;;;;;;;;;5033236;28;20052;-82
2022/12/12 05:52:57;;;;;;;34.17;11.70;;;;;;;;;;5032793;28;20456;-82
2022/12/12 05:55:22;;;;;;;36.87;12.07;;;;;;;;;;5033333;28;20022;-81
2022/12/12 05:57:47;;;;;;;33.63;12.20;;;;;;;;;;5033197;28;20096;-82
2022/12/12 06:00:12;;;;;;;37.07;12.50;;;;;;;;;;5034585;28;20480;-82
2022/12/12 06:02:38;;;;;;;43.83;12.80;;;;;;;;;;5033049;28;20029;-82
2022/12/12 06:05:03;;;;;;;36.27;11.77;;;;;;;;;;5034560;28;20354;-82
2022/12/12 06:07:28;;;;;;;36.33;12.93;;;;;;;;;;5032249;28;20064;-82
2022/12/12 06:09:54;;;;;;;32.77;12.47;;;;;;;;;;5032971;28;20465;-81
2022/12/12 06:12:20;;;;;;;36.67;11.50;;;;;;;;;;5033035;28;20013;-81
2022/12/12 06:14:45;;;;;;;33.57;11.50;;;;;;;;;;5033118;28;20117;-81
2022/12/12 06:17:10;;;;;;;32.90;11.20;;;;;;;;;;5032832;28;20124;-81
2022/12/12 06:19:36;;;;;;;35.67;12.10;;;;;;;;;;5032766;28;20054;-81
2022/12/12 06:22:01;;;;;;;32.37;11.77;;;;;;;;;;5049438;28;20030;-81
2022/12/12 06:24:27;;;;;;;35.47;11.23;;;;;;;;;;5031756;28;20083;-81
2022/12/12 06:26:52;;;;;;;38.17;10.90;;;;;;;;;;5049285;28;20483;-81
2022/12/12 06:29:17;;;;;;;32.37;11.40;;;;;;;;;;5033996;28;20056;-81
2022/12/12 06:31:42;;;;;;;38.23;14.73;;;;;;;;;;5032495;28;20056;-81
2022/12/12 06:34:07;;;;;;;68.93;21.33;;;;;;;;;;5033883;28;20100;-81
2022/12/12 06:36:33;;;;;;;46.87;16.33;;;;;;;;;;5032512;28;20075;-81
2022/12/12 06:38:59;;;;;;;35.57;12.80;;;;;;;;;;5032451;28;20120;-81
2022/12/12 06:41:25;;;;;;;30.37;10.30;;;;;;;;;;5031668;28;20025;-82
2022/12/12 06:43:51;;;;;;;32.37;11.40;;;;;;;;;;5018253;28;20029;-81
2022/12/12 06:46:17;;;;;;;32.20;11.43;;;;;;;;;;5033625;28;20014;-82
2022/12/12 06:48:43;;;;;;;30.90;11.87;;;;;;;;;;5032211;28;20017;-81
2022/12/12 06:51:10;;;;;;;38.83;12.33;;;;;;;;;;5032257;28;20014;-81
2022/12/12 06:53:36;;;;;;;34.30;12.27;;;;;;;;;;5033877;28;20013;-81
2022/12/12 06:56:08;;;;;;;37.47;12.43;;;;;;;;;;5033438;28;20020;-81
2022/12/12 06:58:33;;;;;;;;;;;;;;;;;;5031788;28;20073;-81
2022/12/12 07:00:59;;;;;;;36.77;11.40;;;;;;;;;;5031879;28;19913;-81
2022/12/12 07:03:24;;;;;;;31.27;11.90;;;;;;;;;;5033181;28;20462;-80
2022/12/12 07:05:49;;;;;;;36.33;13.53;;;;;;;;;;5031497;28;20100;-80
2022/12/12 07:08:14;;;;;;;44.37;13.20;;;;;;;;;;5027458;28;20099;-81
2022/12/12 07:10:40;;;;;;;46.50;13.73;;;;;;;;;;5024439;28;20028;-81
2022/12/12 07:13:05;;;;;;;36.93;12.37;;;;;;;;;;5032744;28;20032;-81
2022/12/12 07:15:30;;;;;;;38.03;12.47;;;;;;;;;;5029787;28;20028;-81
2022/12/12 07:17:56;;;;;;;31.13;12.33;;;;;;;;;;5029907;28;20025;-81
2022/12/12 07:20:21;;;;;;;36.53;12.80;;;;;;;;;;5028118;28;20033;-85
2022/12/12 07:22:46;;;;;;;40.00;12.87;;;;;;;;;;5023900;28;20103;-85
2022/12/12 07:25:11;;;;;;;36.97;12.93;;;;;;;;;;5028784;28;20029;-85
2022/12/12 07:27:37;;;;;;;36.70;11.87;;;;;;;;;;5024509;28;20013;-85
2022/12/12 07:30:02;;;;;;;33.60;11.17;;;;;;;;;;5029905;28;20022;-85
2022/12/12 07:32:27;;;;;;;34.47;13.03;;;;;;;;;;5032692;28;20466;-86
2022/12/12 07:34:52;;;;;;;38.17;13.37;;;;;;;;;;5031556;28;20377;-86
2022/12/12 07:37:18;;;;;;;36.00;12.77;;;;;;;;;;5023653;28;20075;-85
2022/12/12 07:39:43;;;;;;;37.07;12.60;;;;;;;;;;5030156;28;20508;-85
2022/12/12 07:42:08;;;;;;;36.30;13.30;;;;;;;;;;5030869;28;20045;-85
2022/12/12 07:44:33;;;;;;;36.60;13.57;;;;;;;;;;5033195;28;20026;-85
2022/12/12 07:46:58;;;;;;;34.30;12.57;;;;;;;;;;5032464;28;20036;-85
2022/12/12 07:49:24;;;;;;;40.97;13.13;;;;;;;;;;5033647;28;20029;-85
2022/12/12 07:51:49;;;;;;;39.53;14.77;;;;;;;;;;5027883;28;20373;-85
2022/12/12 07:54:14;;;;;;;43.60;15.27;;;;;;;;;;5031109;28;20025;-86
2022/12/12 07:56:40;;;;;;;37.10;13.23;;;;;;;;;;5030474;28;20025;-86
2022/12/12 07:59:05;;;;;;;35.13;11.60;;;;;;;;;;5030705;28;20038;-85
2022/12/12 08:01:31;;;;;;;38.03;12.30;;;;;;;;;;5023818;28;20057;-85
2022/12/12 08:03:56;;;;;;;38.00;12.40;;;;;;;;;;5047722;28;20362;-85
2022/12/12 08:06:21;;;;;;;35.23;11.73;;;;;;;;;;5033517;28;20060;-85
2022/12/12 08:08:47;;;;;;;35.60;12.70;;;;;;;;;;5031081;28;20112;-85
2022/12/12 08:11:13;;;;;;;41.87;12.57;;;;;;;;;;5028071;28;20017;-84
2022/12/12 08:13:39;;;;;;;37.57;12.17;;;;;;;;;;5030083;28;20021;-86
2022/12/12 08:16:05;;;;;;;35.10;11.67;;;;;;;;;;5023911;28;20021;-85
2022/12/12 08:18:30;;;;;;;37.77;11.47;;;;;;;;;;5030079;28;20769;-85
2022/12/12 08:20:55;;;;;;;37.50;12.70;;;;;;;;;;5027113;28;20088;-85
2022/12/12 08:23:20;;;;;;;38.33;11.57;;;;;;;;;;5030470;28;20024;-86
2022/12/12 08:25:46;;;;;;;37.63;11.83;;;;;;;;;;5029923;28;20433;-86
2022/12/12 08:28:11;;;;;;;40.10;14.30;;;;;;;;;;5018262;28;20377;-85
2022/12/12 08:30:36;;;;;;;48.80;14.80;;;;;;;;;;5031733;28;20010;-86
2022/12/12 08:33:01;;;;;;;51.33;15.20;;;;;;;;;;5031378;28;20022;-85
2022/12/12 08:35:28;;;;;;;41.30;12.70;;;;;;;;;;5030302;28;20092;-85
2022/12/12 08:37:53;;;;;;;42.60;13.37;;;;;;;;;;5028189;28;20025;-85
2022/12/12 08:40:18;;;;;;;41.17;13.87;;;;;;;;;;5028172;28;20063;-85
2022/12/12 08:42:43;;;;;;;40.00;13.20;;;;;;;;;;5025816;28;20470;-85
2022/12/12 08:45:09;;;;;;;42.17;13.10;;;;;;;;;;5035543;28;20072;-86
2022/12/12 08:47:34;;;;;;;37.47;12.00;;;;;;;;;;5027146;28;20013;-86
2022/12/12 08:49:59;;;;;;;32.13;12.10;;;;;;;;;;5028921;28;20018;-85
2022/12/12 08:52:25;;;;;;;42.77;13.33;;;;;;;;;;5033259;28;20021;-85
2022/12/12 08:54:50;;;;;;;36.03;12.67;;;;;;;;;;5030907;28;20029;-84
2022/12/12 08:57:15;;;;;;;40.17;13.20;;;;;;;;;;5032396;28;20450;-84
2022/12/12 08:59:40;;;;;;;31.93;10.93;;;;;;;;;;5029310;28;20028;-85
2022/12/12 09:02:05;;;;;;;38.47;12.87;;;;;;;;;;5032672;28;20025;-86
2022/12/12 09:04:32;;;;;;;37.00;11.87;;;;;;;;;;5031273;28;20025;-86
2022/12/12 09:06:57;;;;;;;37.07;11.77;;;;;;;;;;5032856;28;20050;-87
2022/12/12 09:09:23;;;;;;;42.70;11.43;;;;;;;;;;5034530;28;20393;-88
2022/12/12 09:11:49;;;;;;;35.90;11.73;;;;;;;;;;5028401;28;20013;-87
2022/12/12 09:14:14;;;;;;;37.33;12.30;;;;;;;;;;5035427;28;20192;-85
2022/12/12 09:16:39;;;;;;;31.93;12.00;;;;;;;;;;5033853;28;20139;-86
2022/12/12 09:19:04;;;;;;;36.83;10.90;;;;;;;;;;5029796;28;20038;-87
2022/12/12 09:21:29;;;;;;;35.70;11.27;;;;;;;;;;5031240;28;20064;-86
2022/12/12 09:23:55;;;;;;;32.07;10.07;;;;;;;;;;5039435;28;20045;-86
2022/12/12 09:26:20;;;;;;;34.83;10.53;;;;;;;;;;5035133;28;20462;-85
2022/12/12 09:28:45;;;;;;;9.40;2.40;;;;;;;;;;5030319;28;20017;-84
2022/12/12 09:31:11;;;;;;;29.03;10.80;;;;;;;;;;5030929;28;20384;-85
2022/12/12 09:33:36;;;;;;;36.53;10.73;;;;;;;;;;5029515;28;20021;-86
2022/12/12 09:36:03;;;;;;;33.47;10.20;;;;;;;;;;5031460;28;20013;-87
2022/12/12 09:38:28;;;;;;;32.70;11.37;;;;;;;;;;5023277;28;20101;-86
2022/12/12 09:40:56;;;;;;;28.40;9.03;;;;;;;;;;5025053;28;20107;-85
2022/12/12 09:43:23;;;;;;;30.37;9.53;;;;;;;;;;5044777;28;20047;-86
2022/12/12 09:45:49;;;;;;;31.90;9.97;;;;;;;;;;5048822;28;20025;-86
2022/12/12 09:48:35;;;;;;;29.70;10.43;;;;;;;;;;5033336;28;20410;-84
2022/12/12 09:51:00;;;;;;;30.63;9.67;;;;;;;;;;5032333;28;20021;-83
2022/12/12 09:53:27;;;;;;;35.17;9.70;;;;;;;;;;5045929;28;20038;-85
2022/12/12 09:56:11;;;;;;;38.03;11.33;;;;;;;;;;5027224;28;20013;-85
2022/12/12 09:58:47;;;;;;;28.90;8.30;;;;;;;;;;5045954;28;20017;-85
2022/12/12 10:01:15;;;;;;;32.43;8.47;;;;;;;;;;5020282;28;20078;-84
2022/12/12 10:03:44;;;;;;;29.53;9.07;;;;;;;;;;5034773;28;20037;-84
2022/12/12 10:06:10;;;;;;;30.67;9.57;;;;;;;;;;5028856;28;20017;-88
2022/12/12 10:08:54;;;;;;;30.40;9.40;;;;;;;;;;5027812;28;21293;-85
2022/12/12 10:11:49;;;;;;;31.37;9.47;;;;;;;;;;5028517;28;20420;-85
2022/12/12 10:14:17;;;;;;;28.90;9.33;;;;;;;;;;5029711;28;20021;-82
2022/12/12 10:16:43;;;;;;;32.43;10.30;;;;;;;;;;5046485;28;20029;-87
2022/12/12 10:19:19;;;;;;;31.67;9.90;;;;;;;;;;5032586;28;20384;-82
2022/12/12 10:21:46;;;;;;;32.87;9.30;;;;;;;;;;5029471;28;20334;-84
2022/12/12 10:24:24;;;;;;;26.53;9.27;;;;;;;;;;5028127;28;20021;-85
2022/12/12 10:26:49;;;;;;;30.77;10.47;;;;;;;;;;5041277;28;20048;-84
2022/12/12 10:29:18;;;;;;;25.23;8.77;;;;;;;;;;5026936;28;20038;-84
2022/12/12 10:32:07;;;;;;;29.17;9.10;;;;;;;;;;5047053;28;20017;-85
2022/12/12 10:34:38;;;;;;;24.87;9.17;;;;;;;;;;5032358;28;20120;-85
2022/12/12 10:37:13;;;;;;;31.27;9.02;;;;;;;;;;5039212;28;20021;-86
2022/12/12 10:39:57;;;;;;;24.37;7.73;;;;;;;;;;5034015;28;20029;-85
2022/12/12 10:42:26;;;;;;;27.67;8.50;;;;;;;;;;5039790;28;20022;-86
2022/12/12 10:44:51;;;;;;;25.43;7.93;;;;;;;;;;5036489;28;20103;-83
2022/12/12 10:47:17;;;;;;;24.70;8.87;;;;;;;;;;5034281;28;20061;-85
2022/12/12 10:49:42;;;;;;;27.40;10.07;;;;;;;;;;5045704;28;20049;-83
2022/12/12 10:52:20;;;;;;;27.43;9.43;;;;;;;;;;5028025;28;20021;-85
2022/12/12 10:55:09;;;;;;;27.60;8.67;;;;;;;;;;5043374;28;20029;-83
2022/12/12 10:57:34;;;;;;;30.87;8.77;;;;;;;;;;5039609;28;20164;-85
2022/12/12 11:00:14;;;;;;;27.03;8.83;;;;;;;;;;5030713;28;20389;-85
2022/12/12 11:02:40;;;;;;;27.13;8.60;;;;;;;;;;5043359;28;20025;-83
2022/12/12 11:05:05;;;;;;;28.87;8.37;;;;;;;;;;5040091;28;20100;-84
2022/12/12 11:07:35;;;;;;;29.13;9.47;;;;;;;;;;5028866;28;20100;-83
2022/12/12 11:10:00;;;;;;;28.67;9.00;;;;;;;;;;5026276;28;20029;-84
2022/12/12 11:12:32;;;;;;;32.33;9.23;;;;;;;;;;5029868;28;20022;-86
2022/12/12 11:15:01;;;;;;;26.42;8.95;;;;;;;;;;5043282;28;20048;-86
2022/12/12 11:17:28;;;;;;;26.70;7.30;;;;;;;;;;5044495;28;20033;-84
2022/12/12 11:19:55;;;;;;;27.50;9.60;;;;;;;;;;5030374;28;20025;-85
2022/12/12 11:22:21;;;;;;;28.57;8.07;;;;;;;;;;5041434;28;20025;-83
2022/12/12 11:24:47;;;;;;;25.50;9.57;;;;;;;;;;5027006;28;20021;-83
2022/12/12 11:27:24;;;;;;;29.67;8.73;;;;;;;;;;5029788;28;20033;-83
2022/12/12 11:29:51;;;;;;;28.63;7.60;;;;;;;;;;5025347;28;20029;-84
2022/12/12 11:32:19;;;;;;;24.67;8.37;;;;;;;;;;5031894;28;20025;-83
2022/12/12 11:34:55;;;;;;;23.33;8.30;;;;;;;;;;5034401;28;20021;-84
2022/12/12 11:37:23;;;;;;;23.67;8.93;;;;;;;;;;5042924;28;20025;-83
2022/12/12 11:39:50;;;;;;;24.37;7.60;;;;;;;;;;5025499;28;20032;-83
2022/12/12 11:42:15;;;;;;;23.20;7.53;;;;;;;;;;5030483;28;20028;-84
2022/12/12 11:44:41;;;;;;;23.47;8.33;;;;;;;;;;5038081;28;20020;-84
2022/12/12 11:47:19;;;;;;;25.17;7.53;;;;;;;;;;5047096;28;20030;-83
2022/12/12 11:49:47;;;;;;;25.70;9.07;;;;;;;;;;5028999;28;20013;-83
2022/12/12 11:52:20;;;;;;;26.70;8.40;;;;;;;;;;5048687;28;20021;-83
2022/12/12 11:54:45;;;;;;;24.80;8.03;;;;;;;;;;5043610;28;20018;-83
2022/12/12 11:57:18;;;;;;;18.87;6.93;;;;;;;;;;5030360;28;20360;-84
2022/12/12 11:59:53;;;;;;;25.87;8.27;;;;;;;;;;5032318;28;20108;-84
2022/12/12 12:02:45;;;;;;;24.43;7.43;;;;;;;;;;5046826;28;20063;-84
2022/12/12 12:05:16;;;;;;;21.57;7.23;;;;;;;;;;5040276;28;20037;-83
2022/12/12 12:08:14;;;;;;;24.97;8.07;;;;;;;;;;5046706;28;20028;-84
2022/12/12 12:10:51;;;;;;;23.37;7.47;;;;;;;;;;5033559;28;20116;-83
2022/12/12 12:13:16;;;;;;;28.23;8.17;;;;;;;;;;5033124;28;20017;-83
2022/12/12 12:16:00;;;;;;;26.40;8.00;;;;;;;;;;5036983;28;20026;-83
2022/12/12 12:18:47;;;;;;;21.40;7.20;;;;;;;;;;5027067;28;20028;-84
2022/12/12 12:21:21;;;;;;;23.80;7.43;;;;;;;;;;5047141;28;20067;-83
2022/12/12 12:24:07;;;;;;;35.40;9.33;;;;;;;;;;5039007;28;20014;-83
2022/12/12 12:26:48;;;;;;;27.83;9.30;;;;;;;;;;5041052;28;20449;-84
2022/12/12 12:29:13;;;;;;;25.80;8.90;;;;;;;;;;5048571;28;20461;-84
2022/12/12 12:31:44;;;;;;;25.67;8.43;;;;;;;;;;5046017;28;20017;-83
2022/12/12 12:34:19;;;;;;;28.17;8.97;;;;;;;;;;5047332;28;20128;-83
2022/12/12 12:36:44;;;;;;;25.23;9.40;;;;;;;;;;5028774;28;20079;-83
2022/12/12 12:39:22;;;;;;;27.90;9.30;;;;;;;;;;5048748;28;20033;-83
2022/12/12 12:41:51;;;;;;;20.47;7.70;;;;;;;;;;5039237;28;20025;-84
2022/12/12 12:44:35;;;;;;;26.37;8.43;;;;;;;;;;5051719;28;20400;-86
2022/12/12 12:47:04;;;;;;;26.03;9.13;;;;;;;;;;5050430;28;20021;-84
2022/12/12 12:49:32;;;;;;;26.13;8.97;;;;;;;;;;5047220;28;20018;-84
2022/12/12 12:52:17;;;;;;;23.57;8.57;;;;;;;;;;5024572;28;20021;-84
2022/12/12 12:54:45;;;;;;;26.37;9.13;;;;;;;;;;5027560;28;20469;-85
2022/12/12 12:57:18;;;;;;;25.30;8.40;;;;;;;;;;5032267;28;20022;-82
2022/12/12 12:59:45;;;;;;;26.87;9.07;;;;;;;;;;5031131;28;20434;-83
2022/12/12 13:02:36;;;;;;;27.27;8.37;;;;;;;;;;5035099;28;20026;-83
2022/12/12 13:05:09;;;;;;;28.33;9.63;;;;;;;;;;5045974;28;20104;-82
2022/12/12 13:07:53;;;;;;;25.42;8.18;;;;;;;;;;5050198;28;20056;-84
2022/12/12 13:10:21;;;;;;;28.17;9.33;;;;;;;;;;5032844;28;20076;-82
2022/12/12 13:12:54;;;;;;;24.57;7.93;;;;;;;;;;5021445;28;20053;-83
2022/12/12 13:15:34;;;;;;;20.37;8.27;;;;;;;;;;5049161;28;20017;-84
2022/12/12 13:18:04;;;;;;;27.13;8.83;;;;;;;;;;5030577;28;20456;-83
2022/12/12 13:20:31;;;;;;;25.07;8.40;;;;;;;;;;5047521;28;20021;-84
2022/12/12 13:23:16;;;;;;;23.37;8.77;;;;;;;;;;5034951;28;20075;-83
2022/12/12 13:25:59;;;;;;;21.47;8.00;;;;;;;;;;5045854;28;20022;-84
2022/12/12 13:28:33;;;;;;;21.10;8.40;;;;;;;;;;5048501;28;20025;-85
2022/12/12 13:31:07;;;;;;;25.80;7.70;;;;;;;;;;5029406;28;20017;-83
2022/12/12 13:33:42;;;;;;;21.53;7.83;;;;;;;;;;5042354;28;20056;-82
2022/12/12 13:36:13;;;;;;;23.07;8.17;;;;;;;;;;5032933;28;20333;-82
2022/12/12 13:38:39;;;;;;;18.00;7.47;;;;;;;;;;5044035;28;20051;-82
2022/12/12 13:41:06;;;;;;;19.33;7.90;;;;;;;;;;5047333;28;20100;-84
2022/12/12 13:43:37;;;;;;;20.63;8.30;;;;;;;;;;5025018;28;20067;-83
2022/12/12 13:46:26;;;;;;;22.40;7.70;;;;;;;;;;5042131;28;20025;-83
2022/12/12 13:48:53;;;;;;;22.90;7.73;;;;;;;;;;5035860;28;20053;-82
2022/12/12 13:51:31;;;;;;;23.13;8.27;;;;;;;;;;5035867;28;20107;-81
2022/12/12 13:54:05;;;;;;;21.30;8.17;;;;;;;;;;5025887;28;20112;-83
2022/12/12 13:56:35;;;;;;;21.33;8.23;;;;;;;;;;5032005;28;20037;-83
2022/12/12 13:59:00;;;;;;;19.97;7.67;;;;;;;;;;5027887;28;20021;-83
2022/12/12 14:01:39;;;;;;;19.07;6.83;;;;;;;;;;5031060;28;20079;-83
2022/12/12 14:04:21;;;;;;;21.67;8.23;;;;;;;;;;5027512;28;20083;-82
2022/12/12 14:06:57;;;;;;;27.83;8.07;;;;;;;;;;5050245;28;20068;-84
2022/12/12 14:09:22;;;;;;;16.60;6.50;;;;;;;;;;5031710;28;20029;-83
2022/12/12 14:11:48;;;;;;;27.47;7.83;;;;;;;;;;5047821;28;20014;-83
2022/12/12 14:14:18;;;;;;;18.00;7.30;;;;;;;;;;5052146;28;20013;-83
2022/12/12 14:16:49;;;;;;;23.43;6.97;;;;;;;;;;5051075;28;20053;-84
2022/12/12 14:19:22;;;;;;;18.05;7.38;;;;;;;;;;5038135;28;20017;-83
2022/12/12 14:21:47;;;;;;;21.97;7.30;;;;;;;;;;5043506;28;20036;-83
2022/12/12 14:24:31;;;;;;;20.07;6.93;;;;;;;;;;5044720;28;20088;-83
2022/12/12 14:26:56;;;;;;;23.70;7.70;;;;;;;;;;5042343;28;20097;-83
2022/12/12 14:29:22;;;;;;;18.63;6.80;;;;;;;;;;5044050;28;20752;-83
2022/12/12 14:31:53;;;;;;;19.20;7.77;;;;;;;;;;5050416;28;20009;-83
2022/12/12 14:34:26;;;;;;;21.30;7.65;;;;;;;;;;5046432;28;20020;-83
2022/12/12 14:37:03;;;;;;;22.40;7.90;;;;;;;;;;5040676;28;20029;-83
2022/12/12 14:39:41;;;;;;;18.93;7.10;;;;;;;;;;5035663;28;20026;-84
2022/12/12 14:42:06;;;;;;;17.47;7.53;;;;;;;;;;5032005;28;20018;-84
2022/12/12 14:44:32;;;;;;;18.80;6.80;;;;;;;;;;5034864;28;20040;-84
2022/12/12 14:46:58;;;;;;;21.27;7.93;;;;;;;;;;5050073;28;20116;-83